sensor_id;sensor_type;location;lat;lon;timestamp;P1;durP1;ratioP1;P2;durP2;ratioP2
13208;SDS011;6669;42.678;23.332;2023-12-29T00:00:06;36.93;;;28.50;;
13208;SDS011;6669;42.678;23.332;2023-12-29T00:02:36;36.63;;;29.90;;
13208;SDS011;6669;42.678;23.332;2023-12-29T00:05:04;38.63;;;32.53;;
13208;SDS011;6669;42.678;23.332;2023-12-29T00:07:34;44.73;;;34.27;;
13208;SDS011;6669;42.678;23.332;2023-12-29T00:10:03;47.10;;;38.97;;
13208;SDS011;6669;42.678;23.332;2023-12-29T00:12:32;39.93;;;32.93;;
13208;SDS011;6669;42.678;23.332;2023-12-29T00:15:01;42.47;;;34.43;;
13208;SDS011;6669;42.678;23.332;2023-12-29T00:17:29;39.33;;;32.27;;
13208;SDS011;6669;42.678;23.332;2023-12-29T00:19:58;39.13;;;32.03;;
13208;SDS011;6669;42.678;23.332;2023-12-29T00:22:27;45.07;;;34.90;;
13208;SDS011;6669;42.678;23.332;2023-12-29T00:24:57;41.40;;;32.37;;
13208;SDS011;6669;42.678;23.332;2023-12-29T00:27:25;38.80;;;32.67;;
13208;SDS011;6669;42.678;23.332;2023-12-29T00:29:53;38.33;;;31.77;;
13208;SDS011;6669;42.678;23.332;2023-12-29T00:32:22;41.70;;;33.20;;
13208;SDS011;6669;42.678;23.332;2023-12-29T00:34:50;39.00;;;32.00;;
13208;SDS011;6669;42.678;23.332;2023-12-29T00:37:18;44.83;;;34.77;;
13208;SDS011;6669;42.678;23.332;2023-12-29T00:39:47;40.37;;;34.80;;
13208;SDS011;6669;42.678;23.332;2023-12-29T00:42:17;40.77;;;34.10;;
13208;SDS011;6669;42.678;23.332;2023-12-29T00:44:45;57.97;;;43.77;;
13208;SDS011;6669;42.678;23.332;2023-12-29T00:47:13;50.23;;;36.33;;
13208;SDS011;6669;42.678;23.332;2023-12-29T00:49:42;45.33;;;36.17;;
13208;SDS011;6669;42.678;23.332;2023-12-29T00:52:10;44.77;;;35.67;;
13208;SDS011;6669;42.678;23.332;2023-12-29T00:54:40;43.20;;;35.77;;
13208;SDS011;6669;42.678;23.332;2023-12-29T00:57:08;42.47;;;33.93;;
13208;SDS011;6669;42.678;23.332;2023-12-29T00:59:38;39.87;;;33.27;;
13208;SDS011;6669;42.678;23.332;2023-12-29T01:02:06;41.23;;;33.73;;
13208;SDS011;6669;42.678;23.332;2023-12-29T01:04:36;44.87;;;34.03;;
13208;SDS011;6669;42.678;23.332;2023-12-29T01:07:06;45.37;;;34.37;;
13208;SDS011;6669;42.678;23.332;2023-12-29T01:09:37;44.37;;;35.50;;
13208;SDS011;6669;42.678;23.332;2023-12-29T01:12:06;43.43;;;35.67;;
13208;SDS011;6669;42.678;23.332;2023-12-29T01:14:35;41.63;;;33.80;;
13208;SDS011;6669;42.678;23.332;2023-12-29T01:17:05;42.17;;;35.17;;
13208;SDS011;6669;42.678;23.332;2023-12-29T01:19:34;41.90;;;33.47;;
13208;SDS011;6669;42.678;23.332;2023-12-29T01:22:02;42.93;;;33.57;;
13208;SDS011;6669;42.678;23.332;2023-12-29T01:24:31;43.57;;;35.00;;
13208;SDS011;6669;42.678;23.332;2023-12-29T01:27:11;38.03;;;32.83;;
13208;SDS011;6669;42.678;23.332;2023-12-29T01:29:39;41.00;;;32.83;;
13208;SDS011;6669;42.678;23.332;2023-12-29T01:32:09;43.27;;;33.90;;
13208;SDS011;6669;42.678;23.332;2023-12-29T01:34:37;43.60;;;35.03;;
13208;SDS011;6669;42.678;23.332;2023-12-29T01:37:06;44.57;;;35.73;;
13208;SDS011;6669;42.678;23.332;2023-12-29T01:39:34;46.97;;;39.63;;
13208;SDS011;6669;42.678;23.332;2023-12-29T01:42:03;44.23;;;37.77;;
13208;SDS011;6669;42.678;23.332;2023-12-29T01:44:31;47.10;;;38.77;;
13208;SDS011;6669;42.678;23.332;2023-12-29T01:47:00;53.13;;;42.37;;
13208;SDS011;6669;42.678;23.332;2023-12-29T01:49:31;52.87;;;41.13;;
13208;SDS011;6669;42.678;23.332;2023-12-29T01:52:02;58.00;;;44.30;;
13208;SDS011;6669;42.678;23.332;2023-12-29T01:54:32;58.33;;;43.77;;
13208;SDS011;6669;42.678;23.332;2023-12-29T01:57:04;53.53;;;42.63;;
13208;SDS011;6669;42.678;23.332;2023-12-29T01:59:35;50.57;;;41.47;;
13208;SDS011;6669;42.678;23.332;2023-12-29T02:02:04;56.23;;;42.37;;
13208;SDS011;6669;42.678;23.332;2023-12-29T02:04:34;53.03;;;45.40;;
13208;SDS011;6669;42.678;23.332;2023-12-29T02:07:05;55.43;;;46.10;;
13208;SDS011;6669;42.678;23.332;2023-12-29T02:09:33;48.90;;;41.33;;
13208;SDS011;6669;42.678;23.332;2023-12-29T02:12:02;47.37;;;37.83;;
13208;SDS011;6669;42.678;23.332;2023-12-29T02:14:30;46.67;;;39.37;;
13208;SDS011;6669;42.678;23.332;2023-12-29T02:17:01;46.93;;;38.33;;
13208;SDS011;6669;42.678;23.332;2023-12-29T02:19:41;45.10;;;37.00;;
13208;SDS011;6669;42.678;23.332;2023-12-29T02:22:11;44.00;;;36.17;;
13208;SDS011;6669;42.678;23.332;2023-12-29T02:24:45;44.47;;;36.40;;
13208;SDS011;6669;42.678;23.332;2023-12-29T02:27:18;43.23;;;36.30;;
13208;SDS011;6669;42.678;23.332;2023-12-29T02:29:58;42.07;;;35.83;;
13208;SDS011;6669;42.678;23.332;2023-12-29T02:32:36;42.70;;;33.43;;
13208;SDS011;6669;42.678;23.332;2023-12-29T02:35:09;33.77;;;30.00;;
13208;SDS011;6669;42.678;23.332;2023-12-29T02:37:57;42.87;;;31.53;;
13208;SDS011;6669;42.678;23.332;2023-12-29T02:40:28;39.47;;;32.70;;
13208;SDS011;6669;42.678;23.332;2023-12-29T02:42:56;47.10;;;36.70;;
13208;SDS011;6669;42.678;23.332;2023-12-29T02:45:24;42.27;;;34.67;;
13208;SDS011;6669;42.678;23.332;2023-12-29T02:47:53;47.00;;;37.93;;
13208;SDS011;6669;42.678;23.332;2023-12-29T02:50:21;44.23;;;37.83;;
13208;SDS011;6669;42.678;23.332;2023-12-29T02:52:49;47.53;;;39.63;;
13208;SDS011;6669;42.678;23.332;2023-12-29T02:55:18;52.50;;;39.77;;
13208;SDS011;6669;42.678;23.332;2023-12-29T02:57:48;48.70;;;38.03;;
13208;SDS011;6669;42.678;23.332;2023-12-29T03:00:16;48.47;;;39.73;;
13208;SDS011;6669;42.678;23.332;2023-12-29T03:02:44;46.33;;;39.13;;
13208;SDS011;6669;42.678;23.332;2023-12-29T03:05:13;46.87;;;37.97;;
13208;SDS011;6669;42.678;23.332;2023-12-29T03:07:42;43.50;;;37.27;;
13208;SDS011;6669;42.678;23.332;2023-12-29T03:10:10;46.53;;;38.30;;
13208;SDS011;6669;42.678;23.332;2023-12-29T03:12:39;45.53;;;38.60;;
13208;SDS011;6669;42.678;23.332;2023-12-29T03:15:09;42.97;;;37.00;;
13208;SDS011;6669;42.678;23.332;2023-12-29T03:17:37;48.90;;;38.33;;
13208;SDS011;6669;42.678;23.332;2023-12-29T03:20:06;43.60;;;36.43;;
13208;SDS011;6669;42.678;23.332;2023-12-29T03:22:35;43.43;;;37.17;;
13208;SDS011;6669;42.678;23.332;2023-12-29T03:25:04;48.57;;;39.03;;
13208;SDS011;6669;42.678;23.332;2023-12-29T03:27:33;47.43;;;40.07;;
13208;SDS011;6669;42.678;23.332;2023-12-29T03:30:01;50.87;;;40.87;;
13208;SDS011;6669;42.678;23.332;2023-12-29T03:32:31;55.70;;;44.33;;
13208;SDS011;6669;42.678;23.332;2023-12-29T03:35:00;60.23;;;44.97;;
13208;SDS011;6669;42.678;23.332;2023-12-29T03:37:28;59.60;;;44.40;;
13208;SDS011;6669;42.678;23.332;2023-12-29T03:39:57;53.67;;;42.23;;
13208;SDS011;6669;42.678;23.332;2023-12-29T03:42:25;52.70;;;40.70;;
13208;SDS011;6669;42.678;23.332;2023-12-29T03:44:53;50.13;;;38.67;;
13208;SDS011;6669;42.678;23.332;2023-12-29T03:47:21;48.83;;;39.17;;
13208;SDS011;6669;42.678;23.332;2023-12-29T03:49:51;57.73;;;42.17;;
13208;SDS011;6669;42.678;23.332;2023-12-29T03:52:19;55.47;;;45.20;;
13208;SDS011;6669;42.678;23.332;2023-12-29T03:54:48;55.50;;;45.23;;
13208;SDS011;6669;42.678;23.332;2023-12-29T03:57:16;54.00;;;45.70;;
13208;SDS011;6669;42.678;23.332;2023-12-29T03:59:44;53.70;;;42.83;;
13208;SDS011;6669;42.678;23.332;2023-12-29T04:02:12;56.40;;;45.27;;
13208;SDS011;6669;42.678;23.332;2023-12-29T04:04:41;55.03;;;42.13;;
13208;SDS011;6669;42.678;23.332;2023-12-29T04:07:10;52.17;;;42.10;;
13208;SDS011;6669;42.678;23.332;2023-12-29T04:09:39;49.67;;;40.43;;
13208;SDS011;6669;42.678;23.332;2023-12-29T04:12:07;49.77;;;39.93;;
13208;SDS011;6669;42.678;23.332;2023-12-29T04:14:36;47.10;;;38.83;;
13208;SDS011;6669;42.678;23.332;2023-12-29T04:17:04;49.13;;;39.47;;
13208;SDS011;6669;42.678;23.332;2023-12-29T04:19:40;53.00;;;39.80;;
13208;SDS011;6669;42.678;23.332;2023-12-29T04:22:09;48.13;;;39.00;;
13208;SDS011;6669;42.678;23.332;2023-12-29T04:24:38;46.43;;;36.87;;
13208;SDS011;6669;42.678;23.332;2023-12-29T04:27:07;43.63;;;35.47;;
13208;SDS011;6669;42.678;23.332;2023-12-29T04:29:35;40.97;;;34.23;;
13208;SDS011;6669;42.678;23.332;2023-12-29T04:32:04;43.60;;;34.17;;
13208;SDS011;6669;42.678;23.332;2023-12-29T04:34:32;46.73;;;34.70;;
13208;SDS011;6669;42.678;23.332;2023-12-29T04:37:01;43.90;;;34.40;;
13208;SDS011;6669;42.678;23.332;2023-12-29T04:39:31;44.83;;;34.47;;
13208;SDS011;6669;42.678;23.332;2023-12-29T04:42:00;42.87;;;34.10;;
13208;SDS011;6669;42.678;23.332;2023-12-29T04:44:29;50.07;;;35.07;;
13208;SDS011;6669;42.678;23.332;2023-12-29T04:46:57;45.50;;;33.60;;
13208;SDS011;6669;42.678;23.332;2023-12-29T04:49:25;42.43;;;32.53;;
13208;SDS011;6669;42.678;23.332;2023-12-29T04:51:54;41.80;;;32.73;;
13208;SDS011;6669;42.678;23.332;2023-12-29T04:54:22;42.27;;;33.13;;
13208;SDS011;6669;42.678;23.332;2023-12-29T04:56:52;44.37;;;34.90;;
13208;SDS011;6669;42.678;23.332;2023-12-29T04:59:21;42.77;;;34.97;;
13208;SDS011;6669;42.678;23.332;2023-12-29T05:01:49;43.77;;;35.30;;
13208;SDS011;6669;42.678;23.332;2023-12-29T05:04:17;46.43;;;34.83;;
13208;SDS011;6669;42.678;23.332;2023-12-29T05:06:45;45.97;;;35.33;;
13208;SDS011;6669;42.678;23.332;2023-12-29T05:09:14;42.70;;;34.83;;
13208;SDS011;6669;42.678;23.332;2023-12-29T05:11:42;42.27;;;33.90;;
13208;SDS011;6669;42.678;23.332;2023-12-29T05:14:12;40.67;;;34.37;;
13208;SDS011;6669;42.678;23.332;2023-12-29T05:16:41;43.93;;;34.50;;
13208;SDS011;6669;42.678;23.332;2023-12-29T05:19:09;41.80;;;33.97;;
13208;SDS011;6669;42.678;23.332;2023-12-29T05:21:37;42.90;;;33.93;;
13208;SDS011;6669;42.678;23.332;2023-12-29T05:24:06;37.03;;;31.47;;
13208;SDS011;6669;42.678;23.332;2023-12-29T05:26:34;42.83;;;34.27;;
13208;SDS011;6669;42.678;23.332;2023-12-29T05:29:03;41.83;;;32.30;;
13208;SDS011;6669;42.678;23.332;2023-12-29T05:31:32;40.20;;;31.50;;
13208;SDS011;6669;42.678;23.332;2023-12-29T05:34:01;37.53;;;30.97;;
13208;SDS011;6669;42.678;23.332;2023-12-29T05:36:29;40.10;;;31.47;;
13208;SDS011;6669;42.678;23.332;2023-12-29T05:38:57;37.77;;;30.40;;
13208;SDS011;6669;42.678;23.332;2023-12-29T05:41:26;36.23;;;30.33;;
13208;SDS011;6669;42.678;23.332;2023-12-29T05:43:54;35.93;;;30.13;;
13208;SDS011;6669;42.678;23.332;2023-12-29T05:46:24;38.47;;;30.20;;
13208;SDS011;6669;42.678;23.332;2023-12-29T05:48:54;39.73;;;30.50;;
13208;SDS011;6669;42.678;23.332;2023-12-29T05:51:22;37.53;;;29.20;;
13208;SDS011;6669;42.678;23.332;2023-12-29T05:53:51;34.40;;;27.50;;
13208;SDS011;6669;42.678;23.332;2023-12-29T05:56:19;35.97;;;28.50;;
13208;SDS011;6669;42.678;23.332;2023-12-29T05:58:49;38.63;;;27.73;;
13208;SDS011;6669;42.678;23.332;2023-12-29T06:01:17;38.03;;;28.77;;
13208;SDS011;6669;42.678;23.332;2023-12-29T06:03:46;35.43;;;28.63;;
13208;SDS011;6669;42.678;23.332;2023-12-29T06:06:16;36.30;;;29.33;;
13208;SDS011;6669;42.678;23.332;2023-12-29T06:08:44;39.77;;;29.37;;
13208;SDS011;6669;42.678;23.332;2023-12-29T06:11:14;36.10;;;29.13;;
13208;SDS011;6669;42.678;23.332;2023-12-29T06:13:43;36.53;;;28.43;;
13208;SDS011;6669;42.678;23.332;2023-12-29T06:16:16;37.40;;;28.03;;
13208;SDS011;6669;42.678;23.332;2023-12-29T06:18:46;36.47;;;27.03;;
13208;SDS011;6669;42.678;23.332;2023-12-29T06:21:16;36.37;;;28.33;;
13208;SDS011;6669;42.678;23.332;2023-12-29T06:23:45;35.43;;;28.10;;
13208;SDS011;6669;42.678;23.332;2023-12-29T06:26:14;37.20;;;29.33;;
13208;SDS011;6669;42.678;23.332;2023-12-29T06:28:43;33.10;;;27.60;;
13208;SDS011;6669;42.678;23.332;2023-12-29T06:31:12;39.50;;;29.17;;
13208;SDS011;6669;42.678;23.332;2023-12-29T06:33:41;36.13;;;28.07;;
13208;SDS011;6669;42.678;23.332;2023-12-29T06:36:10;38.77;;;28.87;;
13208;SDS011;6669;42.678;23.332;2023-12-29T06:38:40;35.67;;;27.47;;
13208;SDS011;6669;42.678;23.332;2023-12-29T06:41:12;33.03;;;27.60;;
13208;SDS011;6669;42.678;23.332;2023-12-29T06:43:41;35.20;;;28.00;;
13208;SDS011;6669;42.678;23.332;2023-12-29T06:46:10;37.10;;;27.47;;
13208;SDS011;6669;42.678;23.332;2023-12-29T06:48:40;34.37;;;28.13;;
13208;SDS011;6669;42.678;23.332;2023-12-29T06:51:09;37.00;;;28.50;;
13208;SDS011;6669;42.678;23.332;2023-12-29T06:53:44;36.30;;;29.13;;
13208;SDS011;6669;42.678;23.332;2023-12-29T06:56:14;38.27;;;27.97;;
13208;SDS011;6669;42.678;23.332;2023-12-29T06:58:42;37.27;;;28.23;;
13208;SDS011;6669;42.678;23.332;2023-12-29T07:01:10;36.20;;;27.40;;
13208;SDS011;6669;42.678;23.332;2023-12-29T07:03:39;40.93;;;33.07;;
13208;SDS011;6669;42.678;23.332;2023-12-29T07:06:08;39.43;;;32.43;;
13208;SDS011;6669;42.678;23.332;2023-12-29T07:08:37;36.33;;;27.37;;
13208;SDS011;6669;42.678;23.332;2023-12-29T07:11:10;36.23;;;27.83;;
13208;SDS011;6669;42.678;23.332;2023-12-29T07:13:39;34.97;;;28.30;;
13208;SDS011;6669;42.678;23.332;2023-12-29T07:16:08;36.93;;;28.43;;
13208;SDS011;6669;42.678;23.332;2023-12-29T07:18:36;36.67;;;29.13;;
13208;SDS011;6669;42.678;23.332;2023-12-29T07:21:06;34.40;;;27.67;;
13208;SDS011;6669;42.678;23.332;2023-12-29T07:23:35;35.87;;;28.90;;
13208;SDS011;6669;42.678;23.332;2023-12-29T07:26:03;34.90;;;28.43;;
13208;SDS011;6669;42.678;23.332;2023-12-29T07:28:33;35.57;;;27.97;;
13208;SDS011;6669;42.678;23.332;2023-12-29T07:31:02;31.97;;;28.03;;
13208;SDS011;6669;42.678;23.332;2023-12-29T07:33:31;34.43;;;27.43;;
13208;SDS011;6669;42.678;23.332;2023-12-29T07:35:59;34.13;;;28.70;;
13208;SDS011;6669;42.678;23.332;2023-12-29T07:38:28;32.50;;;27.40;;
13208;SDS011;6669;42.678;23.332;2023-12-29T07:40:56;29.90;;;26.20;;
13208;SDS011;6669;42.678;23.332;2023-12-29T07:43:25;36.22;;;30.45;;
13208;SDS011;6669;42.678;23.332;2023-12-29T07:45:55;34.73;;;28.43;;
13208;SDS011;6669;42.678;23.332;2023-12-29T07:48:23;37.15;;;32.65;;
13208;SDS011;6669;42.678;23.332;2023-12-29T07:50:52;38.10;;;28.37;;
13208;SDS011;6669;42.678;23.332;2023-12-29T07:53:20;36.53;;;29.43;;
13208;SDS011;6669;42.678;23.332;2023-12-29T07:55:48;37.13;;;29.50;;
13208;SDS011;6669;42.678;23.332;2023-12-29T07:58:18;36.67;;;32.58;;
13208;SDS011;6669;42.678;23.332;2023-12-29T08:00:47;37.73;;;30.07;;
13208;SDS011;6669;42.678;23.332;2023-12-29T08:03:16;38.20;;;30.70;;
13208;SDS011;6669;42.678;23.332;2023-12-29T08:05:45;39.87;;;30.73;;
13208;SDS011;6669;42.678;23.332;2023-12-29T08:08:13;37.10;;;31.83;;
13208;SDS011;6669;42.678;23.332;2023-12-29T08:10:42;41.40;;;31.23;;
13208;SDS011;6669;42.678;23.332;2023-12-29T08:13:10;37.90;;;31.10;;
13208;SDS011;6669;42.678;23.332;2023-12-29T08:15:39;38.10;;;31.20;;
13208;SDS011;6669;42.678;23.332;2023-12-29T08:18:07;41.13;;;32.70;;
13208;SDS011;6669;42.678;23.332;2023-12-29T08:20:37;44.50;;;37.60;;
13208;SDS011;6669;42.678;23.332;2023-12-29T08:23:05;39.25;;;33.22;;
13208;SDS011;6669;42.678;23.332;2023-12-29T08:25:34;39.40;;;33.17;;
13208;SDS011;6669;42.678;23.332;2023-12-29T08:28:03;38.00;;;31.13;;
13208;SDS011;6669;42.678;23.332;2023-12-29T08:30:34;36.47;;;29.27;;
13208;SDS011;6669;42.678;23.332;2023-12-29T08:33:02;40.90;;;30.67;;
13208;SDS011;6669;42.678;23.332;2023-12-29T08:35:31;38.57;;;30.17;;
13208;SDS011;6669;42.678;23.332;2023-12-29T08:38:01;40.00;;;30.57;;
13208;SDS011;6669;42.678;23.332;2023-12-29T08:40:29;36.80;;;30.87;;
13208;SDS011;6669;42.678;23.332;2023-12-29T08:42:58;39.17;;;31.63;;
13208;SDS011;6669;42.678;23.332;2023-12-29T08:45:28;37.43;;;30.73;;
13208;SDS011;6669;42.678;23.332;2023-12-29T08:47:56;35.53;;;29.80;;
13208;SDS011;6669;42.678;23.332;2023-12-29T08:50:25;36.33;;;30.03;;
13208;SDS011;6669;42.678;23.332;2023-12-29T08:52:53;37.63;;;30.20;;
13208;SDS011;6669;42.678;23.332;2023-12-29T08:55:23;36.73;;;30.03;;
13208;SDS011;6669;42.678;23.332;2023-12-29T08:57:51;36.17;;;30.47;;
13208;SDS011;6669;42.678;23.332;2023-12-29T09:00:21;37.27;;;29.77;;
13208;SDS011;6669;42.678;23.332;2023-12-29T09:02:49;34.77;;;30.10;;
13208;SDS011;6669;42.678;23.332;2023-12-29T09:05:18;38.70;;;29.93;;
13208;SDS011;6669;42.678;23.332;2023-12-29T09:07:46;37.72;;;33.67;;
13208;SDS011;6669;42.678;23.332;2023-12-29T09:10:15;38.10;;;30.87;;
13208;SDS011;6669;42.678;23.332;2023-12-29T09:12:45;34.83;;;29.17;;
13208;SDS011;6669;42.678;23.332;2023-12-29T09:15:14;36.83;;;30.10;;
13208;SDS011;6669;42.678;23.332;2023-12-29T09:17:42;38.00;;;29.50;;
13208;SDS011;6669;42.678;23.332;2023-12-29T09:20:11;34.90;;;29.63;;
13208;SDS011;6669;42.678;23.332;2023-12-29T09:22:41;34.63;;;28.57;;
13208;SDS011;6669;42.678;23.332;2023-12-29T09:25:09;37.63;;;30.20;;
13208;SDS011;6669;42.678;23.332;2023-12-29T09:27:38;36.80;;;29.27;;
13208;SDS011;6669;42.678;23.332;2023-12-29T09:30:08;35.00;;;28.57;;
13208;SDS011;6669;42.678;23.332;2023-12-29T09:32:37;41.80;;;30.70;;
13208;SDS011;6669;42.678;23.332;2023-12-29T09:35:06;36.67;;;29.57;;
13208;SDS011;6669;42.678;23.332;2023-12-29T09:37:35;37.37;;;29.63;;
13208;SDS011;6669;42.678;23.332;2023-12-29T09:40:03;32.93;;;29.37;;
13208;SDS011;6669;42.678;23.332;2023-12-29T09:42:32;40.10;;;30.33;;
13208;SDS011;6669;42.678;23.332;2023-12-29T09:45:03;36.53;;;29.30;;
13208;SDS011;6669;42.678;23.332;2023-12-29T09:47:38;38.13;;;28.73;;
13208;SDS011;6669;42.678;23.332;2023-12-29T09:50:09;33.40;;;28.13;;
13208;SDS011;6669;42.678;23.332;2023-12-29T09:52:40;33.67;;;28.37;;
13208;SDS011;6669;42.678;23.332;2023-12-29T09:55:09;32.70;;;27.92;;
13208;SDS011;6669;42.678;23.332;2023-12-29T09:57:38;30.80;;;27.40;;
13208;SDS011;6669;42.678;23.332;2023-12-29T10:00:11;38.90;;;28.90;;
13208;SDS011;6669;42.678;23.332;2023-12-29T10:02:43;34.42;;;29.75;;
13208;SDS011;6669;42.678;23.332;2023-12-29T10:05:11;36.10;;;30.17;;
13208;SDS011;6669;42.678;23.332;2023-12-29T10:07:40;39.33;;;33.10;;
13208;SDS011;6669;42.678;23.332;2023-12-29T10:10:12;41.47;;;34.83;;
13208;SDS011;6669;42.678;23.332;2023-12-29T10:12:43;53.63;;;36.50;;
13208;SDS011;6669;42.678;23.332;2023-12-29T10:15:17;37.55;;;33.28;;
13208;SDS011;6669;42.678;23.332;2023-12-29T10:17:51;36.05;;;31.63;;
13208;SDS011;6669;42.678;23.332;2023-12-29T10:20:30;37.95;;;30.35;;
13208;SDS011;6669;42.678;23.332;2023-12-29T10:23:08;35.55;;;30.13;;
13208;SDS011;6669;42.678;23.332;2023-12-29T10:25:39;39.15;;;28.83;;
13208;SDS011;6669;42.678;23.332;2023-12-29T10:28:09;35.63;;;28.35;;
13208;SDS011;6669;42.678;23.332;2023-12-29T10:30:39;36.40;;;28.67;;
13208;SDS011;6669;42.678;23.332;2023-12-29T10:33:08;34.20;;;27.77;;
13208;SDS011;6669;42.678;23.332;2023-12-29T10:35:36;38.30;;;28.52;;
13208;SDS011;6669;42.678;23.332;2023-12-29T10:38:08;36.30;;;28.48;;
13208;SDS011;6669;42.678;23.332;2023-12-29T10:40:38;35.70;;;28.60;;
13208;SDS011;6669;42.678;23.332;2023-12-29T10:43:07;33.58;;;28.08;;
13208;SDS011;6669;42.678;23.332;2023-12-29T10:45:36;34.13;;;28.45;;
13208;SDS011;6669;42.678;23.332;2023-12-29T10:48:06;35.63;;;27.63;;
13208;SDS011;6669;42.678;23.332;2023-12-29T10:50:42;34.95;;;29.05;;
13208;SDS011;6669;42.678;23.332;2023-12-29T10:53:12;33.17;;;26.77;;
13208;SDS011;6669;42.678;23.332;2023-12-29T10:55:40;30.73;;;27.15;;
13208;SDS011;6669;42.678;23.332;2023-12-29T10:58:08;31.58;;;26.85;;
13208;SDS011;6669;42.678;23.332;2023-12-29T11:00:37;33.13;;;26.65;;
13208;SDS011;6669;42.678;23.332;2023-12-29T11:03:06;34.45;;;26.95;;
13208;SDS011;6669;42.678;23.332;2023-12-29T11:05:36;29.65;;;25.60;;
13208;SDS011;6669;42.678;23.332;2023-12-29T11:08:05;30.58;;;26.92;;
13208;SDS011;6669;42.678;23.332;2023-12-29T11:10:43;33.05;;;26.25;;
13208;SDS011;6669;42.678;23.332;2023-12-29T11:13:12;30.23;;;26.10;;
13208;SDS011;6669;42.678;23.332;2023-12-29T11:15:45;30.30;;;25.75;;
13208;SDS011;6669;42.678;23.332;2023-12-29T11:18:16;32.72;;;26.50;;
13208;SDS011;6669;42.678;23.332;2023-12-29T11:20:45;33.38;;;26.90;;
13208;SDS011;6669;42.678;23.332;2023-12-29T11:23:14;36.17;;;28.27;;
13208;SDS011;6669;42.678;23.332;2023-12-29T11:25:44;36.80;;;29.05;;
13208;SDS011;6669;42.678;23.332;2023-12-29T11:28:14;34.05;;;28.73;;
13208;SDS011;6669;42.678;23.332;2023-12-29T11:30:45;34.05;;;28.55;;
13208;SDS011;6669;42.678;23.332;2023-12-29T11:33:17;35.78;;;29.00;;
13208;SDS011;6669;42.678;23.332;2023-12-29T11:35:50;35.50;;;30.13;;
13208;SDS011;6669;42.678;23.332;2023-12-29T11:41:13;35.40;;;30.27;;
13208;SDS011;6669;42.678;23.332;2023-12-29T11:43:55;41.08;;;30.55;;
13208;SDS011;6669;42.678;23.332;2023-12-29T11:46:34;32.55;;;28.75;;
13208;SDS011;6669;42.678;23.332;2023-12-29T11:49:05;37.50;;;30.35;;
13208;SDS011;6669;42.678;23.332;2023-12-29T11:51:34;35.17;;;30.55;;
13208;SDS011;6669;42.678;23.332;2023-12-29T11:54:04;34.53;;;29.33;;
13208;SDS011;6669;42.678;23.332;2023-12-29T11:56:36;33.88;;;29.08;;
13208;SDS011;6669;42.678;23.332;2023-12-29T11:59:13;35.47;;;28.88;;
13208;SDS011;6669;42.678;23.332;2023-12-29T12:01:42;36.83;;;28.60;;
13208;SDS011;6669;42.678;23.332;2023-12-29T12:07:04;34.53;;;28.27;;
13208;SDS011;6669;42.678;23.332;2023-12-29T12:09:34;31.55;;;27.73;;
13208;SDS011;6669;42.678;23.332;2023-12-29T12:12:03;38.03;;;28.05;;
13208;SDS011;6669;42.678;23.332;2023-12-29T12:14:50;34.53;;;28.40;;
13208;SDS011;6669;42.678;23.332;2023-12-29T12:17:30;33.08;;;27.63;;
13208;SDS011;6669;42.678;23.332;2023-12-29T12:20:02;33.05;;;27.90;;
13208;SDS011;6669;42.678;23.332;2023-12-29T12:22:34;35.72;;;29.02;;
13208;SDS011;6669;42.678;23.332;2023-12-29T12:25:05;33.42;;;27.80;;
13208;SDS011;6669;42.678;23.332;2023-12-29T12:27:34;36.95;;;29.55;;
13208;SDS011;6669;42.678;23.332;2023-12-29T12:30:06;34.25;;;27.77;;
13208;SDS011;6669;42.678;23.332;2023-12-29T12:32:37;33.38;;;28.55;;
13208;SDS011;6669;42.678;23.332;2023-12-29T12:35:14;35.47;;;28.20;;
13208;SDS011;6669;42.678;23.332;2023-12-29T12:37:46;35.58;;;29.25;;
13208;SDS011;6669;42.678;23.332;2023-12-29T12:40:24;36.83;;;26.77;;
13208;SDS011;6669;42.678;23.332;2023-12-29T12:42:53;38.78;;;27.88;;
13208;SDS011;6669;42.678;23.332;2023-12-29T12:45:21;34.35;;;28.23;;
13208;SDS011;6669;42.678;23.332;2023-12-29T12:47:55;35.30;;;29.42;;
13208;SDS011;6669;42.678;23.332;2023-12-29T12:50:30;35.53;;;29.02;;
13208;SDS011;6669;42.678;23.332;2023-12-29T12:52:59;34.15;;;28.58;;
13208;SDS011;6669;42.678;23.332;2023-12-29T12:55:30;36.05;;;28.50;;
13208;SDS011;6669;42.678;23.332;2023-12-29T12:58:02;30.88;;;26.95;;
13208;SDS011;6669;42.678;23.332;2023-12-29T13:00:31;31.83;;;24.63;;
13208;SDS011;6669;42.678;23.332;2023-12-29T13:03:00;30.58;;;27.08;;
13208;SDS011;6669;42.678;23.332;2023-12-29T13:05:30;31.60;;;25.00;;
13208;SDS011;6669;42.678;23.332;2023-12-29T13:07:59;28.35;;;24.42;;
13208;SDS011;6669;42.678;23.332;2023-12-29T13:10:29;35.67;;;25.08;;
13208;SDS011;6669;42.678;23.332;2023-12-29T13:12:58;27.50;;;23.02;;
13208;SDS011;6669;42.678;23.332;2023-12-29T13:15:27;29.33;;;24.15;;
13208;SDS011;6669;42.678;23.332;2023-12-29T13:17:56;26.33;;;21.50;;
13208;SDS011;6669;42.678;23.332;2023-12-29T13:20:25;28.75;;;22.55;;
13208;SDS011;6669;42.678;23.332;2023-12-29T13:22:54;25.17;;;20.83;;
13208;SDS011;6669;42.678;23.332;2023-12-29T13:25:24;23.45;;;19.33;;
13208;SDS011;6669;42.678;23.332;2023-12-29T13:27:54;24.13;;;17.30;;
13208;SDS011;6669;42.678;23.332;2023-12-29T13:30:24;23.63;;;18.95;;
13208;SDS011;6669;42.678;23.332;2023-12-29T13:32:53;22.60;;;18.15;;
13208;SDS011;6669;42.678;23.332;2023-12-29T13:35:23;22.30;;;17.55;;
13208;SDS011;6669;42.678;23.332;2023-12-29T13:38:03;20.75;;;15.18;;
13208;SDS011;6669;42.678;23.332;2023-12-29T13:40:38;19.83;;;15.57;;
13208;SDS011;6669;42.678;23.332;2023-12-29T13:43:10;17.20;;;13.50;;
13208;SDS011;6669;42.678;23.332;2023-12-29T13:45:40;18.23;;;13.55;;
13208;SDS011;6669;42.678;23.332;2023-12-29T13:48:10;16.08;;;12.30;;
13208;SDS011;6669;42.678;23.332;2023-12-29T13:50:44;14.40;;;12.32;;
13208;SDS011;6669;42.678;23.332;2023-12-29T13:53:17;17.73;;;11.48;;
13208;SDS011;6669;42.678;23.332;2023-12-29T13:55:46;13.50;;;9.60;;
13208;SDS011;6669;42.678;23.332;2023-12-29T13:58:14;16.02;;;9.20;;
13208;SDS011;6669;42.678;23.332;2023-12-29T14:00:45;13.68;;;8.63;;
13208;SDS011;6669;42.678;23.332;2023-12-29T14:03:22;13.27;;;8.50;;
13208;SDS011;6669;42.678;23.332;2023-12-29T14:05:51;11.88;;;8.50;;
13208;SDS011;6669;42.678;23.332;2023-12-29T14:08:26;9.18;;;7.50;;
13208;SDS011;6669;42.678;23.332;2023-12-29T14:11:00;8.25;;;6.40;;
13208;SDS011;6669;42.678;23.332;2023-12-29T14:13:28;9.77;;;6.78;;
13208;SDS011;6669;42.678;23.332;2023-12-29T14:15:57;8.50;;;6.35;;
13208;SDS011;6669;42.678;23.332;2023-12-29T14:21:22;11.82;;;7.05;;
13208;SDS011;6669;42.678;23.332;2023-12-29T14:24:07;10.52;;;6.88;;
13208;SDS011;6669;42.678;23.332;2023-12-29T14:26:37;7.88;;;5.75;;
13208;SDS011;6669;42.678;23.332;2023-12-29T14:29:07;9.63;;;5.50;;
13208;SDS011;6669;42.678;23.332;2023-12-29T14:31:37;10.82;;;6.30;;
13208;SDS011;6669;42.678;23.332;2023-12-29T14:34:06;9.38;;;5.50;;
13208;SDS011;6669;42.678;23.332;2023-12-29T14:36:36;9.88;;;6.03;;
13208;SDS011;6669;42.678;23.332;2023-12-29T14:39:06;9.70;;;6.28;;
13208;SDS011;6669;42.678;23.332;2023-12-29T14:41:36;12.27;;;7.15;;
13208;SDS011;6669;42.678;23.332;2023-12-29T14:44:05;11.55;;;6.80;;
13208;SDS011;6669;42.678;23.332;2023-12-29T14:46:33;9.57;;;7.03;;